Time;durP1;ratioP1;P1;durP2;ratioP2;P2;SDS_P1;SDS_P2;PMS_P1;PMS_P2;Temp;Humidity;BMP_temperature;BMP_pressure;BME280_temperature;BME280_humidity;BME280_pressure;Samples;Min_cycle;Max_cycle;Signal;HPM_P1;HPM_P2
2023/05/28 02:32:46;;;;;;;1.50;1.00;;;12.90;98.20;;;;;;4955216;28;20534;-90
2023/05/28 02:35:14;;;;;;;1.47;1.00;;;12.90;98.20;;;;;;4950627;29;20502;-90
2023/05/28 02:37:43;;;;;;;1.47;1.00;;;12.90;98.20;;;;;;4946561;28;20928;-90
2023/05/28 02:40:13;;;;;;;1.50;1.10;;;12.90;98.20;;;;;;4941634;29;20460;-92
2023/05/28 02:42:40;;;;;;;1.50;1.10;;;12.90;98.20;;;;;;4940845;29;20482;-91
2023/05/28 02:45:08;;;;;;;2.77;1.97;;;12.90;98.20;;;;;;4948363;29;20515;-89
2023/05/28 02:47:35;;;;;;;1.50;1.10;;;12.90;98.20;;;;;;4939570;29;20455;-91
2023/05/28 02:50:06;;;;;;;1.50;1.00;;;12.90;98.20;;;;;;4939957;29;20482;-90
2023/05/28 02:52:34;;;;;;;1.50;1.00;;;12.90;98.20;;;;;;4942232;28;20460;-90
2023/05/28 02:55:02;;;;;;;1.50;1.10;;;12.80;98.20;;;;;;4969023;29;20459;-91
2023/05/28 03:00:58;;;;;;;1.50;1.00;;;12.70;98.20;;;;;;4923700;29;20499;-91
2023/05/28 03:03:25;;;;;;;1.47;1.00;;;12.70;98.20;;;;;;4937572;29;20866;-91
2023/05/28 03:05:53;;;;;;;1.50;1.00;;;12.70;98.20;;;;;;4938280;29;20548;-89
2023/05/28 03:08:20;;;;;;;1.50;1.03;;;12.60;98.20;;;;;;4936382;29;20511;-91
2023/05/28 03:10:47;;;;;;;1.47;1.00;;;12.60;98.20;;;;;;4933023;29;20494;-92
2023/05/28 03:13:13;;;;;;;1.50;1.17;;;12.60;98.20;;;;;;4954821;29;20542;-91
2023/05/28 03:15:40;;;;;;;1.47;1.00;;;12.50;98.20;;;;;;4942397;29;20543;-93
2023/05/28 03:18:07;;;;;;;1.47;1.00;;;12.50;98.20;;;;;;4950541;29;20795;-91
2023/05/28 03:20:33;;;;;;;1.50;1.00;;;12.50;98.20;;;;;;4940768;29;20456;-94
2023/05/28 03:23:02;;;;;;;1.50;1.20;;;12.50;98.20;;;;;;4953566;29;20452;-90
2023/05/28 03:25:28;;;;;;;1.50;1.07;;;12.50;98.20;;;;;;4957578;29;20459;-91
2023/05/28 03:27:55;;;;;;;1.50;1.00;;;12.50;98.20;;;;;;4953640;29;20487;-95
2023/05/28 03:30:22;;;;;;;1.47;1.00;;;12.50;98.20;;;;;;4953872;29;20464;-91
2023/05/28 03:32:50;;;;;;;1.47;1.00;;;12.50;98.20;;;;;;4953231;29;20460;-92
2023/05/28 03:35:17;;;;;;;1.40;1.00;;;12.40;98.20;;;;;;4952190;29;20529;-92
2023/05/28 03:37:43;;;;;;;1.43;1.00;;;12.50;98.20;;;;;;4946628;29;20448;-93
2023/05/28 03:40:12;;;;;;;1.50;1.00;;;12.40;98.20;;;;;;4945572;29;20470;-95
2023/05/28 03:42:39;;;;;;;1.50;1.00;;;12.50;98.20;;;;;;4953529;29;20533;-92
2023/05/28 03:45:07;;;;;;;1.40;1.10;;;12.40;98.20;;;;;;4948448;29;20460;-92
2023/05/28 03:47:35;;;;;;;1.47;1.00;;;12.40;98.20;;;;;;4956188;29;20514;-92
2023/05/28 03:50:02;;;;;;;1.47;1.00;;;12.40;98.20;;;;;;4945723;29;20506;-91
2023/05/28 03:52:29;;;;;;;1.40;1.00;;;12.40;98.20;;;;;;4951839;29;20466;-94
2023/05/28 03:54:56;;;;;;;1.50;1.10;;;12.30;98.20;;;;;;4952286;29;20475;-95
2023/05/28 03:57:24;;;;;;;1.50;1.10;;;12.30;98.20;;;;;;4952777;29;20443;-90
2023/05/28 03:59:51;;;;;;;1.40;1.00;;;12.30;98.20;;;;;;4951639;29;20546;-91
2023/05/28 04:02:18;;;;;;;1.47;1.10;;;12.30;98.20;;;;;;4944299;29;20456;-93
2023/05/28 04:04:47;;;;;;;1.40;1.00;;;12.30;98.20;;;;;;4955202;29;20451;-94
2023/05/28 04:07:13;;;;;;;1.50;1.00;;;12.30;98.20;;;;;;4964106;29;20471;-96
2023/05/28 04:09:40;;;;;;;1.50;1.00;;;12.30;98.20;;;;;;4952024;29;20590;-93
2023/05/28 04:12:08;;;;;;;1.50;1.10;;;12.30;98.20;;;;;;4952366;29;20455;-92
2023/05/28 04:14:36;;;;;;;1.50;1.10;;;12.30;98.20;;;;;;4947642;29;20456;-92
2023/05/28 04:17:03;;;;;;;1.47;1.00;;;12.30;98.20;;;;;;4950042;29;20478;-94
2023/05/28 04:19:30;;;;;;;1.50;1.03;;;12.40;98.20;;;;;;4952174;29;20464;-92
2023/05/28 04:22:02;;;;;;;1.43;1.10;;;12.40;98.20;;;;;;4953029;29;20439;-89
2023/05/28 04:24:29;;;;;;;1.40;1.00;;;12.40;98.20;;;;;;4941155;29;20459;-92
2023/05/28 04:26:56;;;;;;;1.50;1.10;;;12.40;98.20;;;;;;4952015;29;20597;-91
2023/05/28 04:29:25;;;;;;;1.47;1.00;;;12.50;98.20;;;;;;4941360;29;20492;-90
2023/05/28 04:31:53;;;;;;;1.40;1.10;;;12.50;98.20;;;;;;4947425;29;20648;-90
2023/05/28 04:34:20;;;;;;;1.47;1.10;;;12.50;98.20;;;;;;4945357;29;20469;-91
2023/05/28 04:36:51;;;;;;;1.50;1.10;;;12.50;98.20;;;;;;4951536;28;20468;-90
2023/05/28 04:39:19;;;;;;;1.47;1.00;;;12.60;98.20;;;;;;4946228;29;21028;-91
2023/05/28 04:41:46;;;;;;;1.50;1.00;;;12.60;98.20;;;;;;4938457;29;20503;-91
2023/05/28 04:44:15;;;;;;;1.50;1.10;;;12.70;98.20;;;;;;4936584;29;20475;-90
2023/05/28 04:46:43;;;;;;;1.47;1.00;;;12.70;98.20;;;;;;4937464;29;20833;-90
2023/05/28 04:49:11;;;;;;;1.40;1.00;;;12.80;98.20;;;;;;4937912;29;21013;-90
2023/05/28 04:51:39;;;;;;;1.47;1.00;;;12.80;98.20;;;;;;4940300;29;20491;-91
2023/05/28 04:54:05;;;;;;;1.43;1.00;;;13.00;98.20;;;;;;4942899;29;20467;-92
2023/05/28 04:56:32;;;;;;;1.43;1.00;;;13.10;98.20;;;;;;4937269;29;20475;-91
2023/05/28 04:58:59;;;;;;;1.43;1.00;;;13.20;98.20;;;;;;4944879;29;20484;-90
2023/05/28 05:01:27;;;;;;;1.50;1.00;;;13.40;98.20;;;;;;4937901;29;20464;-90
2023/05/28 05:03:54;;;;;;;1.43;1.00;;;13.60;98.20;;;;;;4928087;29;20498;-90
2023/05/28 05:06:22;;;;;;;1.47;1.00;;;13.80;98.20;;;;;;4931577;29;20816;-89
2023/05/28 05:08:49;;;;;;;1.50;1.00;;;14.00;98.20;;;;;;4954421;29;20495;-90
2023/05/28 05:11:16;;;;;;;1.47;1.00;;;14.20;98.20;;;;;;4951173;29;20512;-91
2023/05/28 05:13:43;;;;;;;1.47;1.00;;;14.40;98.20;;;;;;4951045;29;20523;-92
2023/05/28 05:16:11;;;;;;;1.50;1.00;;;14.60;98.20;;;;;;4938162;29;20460;-92
2023/05/28 05:18:37;;;;;;;1.50;1.00;;;14.80;98.20;;;;;;4936878;29;20483;-91
2023/05/28 05:21:05;;;;;;;8.70;1.87;;;15.00;98.20;;;;;;4943448;29;20504;-92
2023/05/28 05:23:33;;;;;;;1.50;1.00;;;15.20;98.20;;;;;;4963913;29;20489;-93
2023/05/28 05:26:00;;;;;;;1.50;1.00;;;15.40;98.20;;;;;;4959790;29;20502;-94
2023/05/28 05:28:27;;;;;;;1.50;1.00;;;15.50;98.20;;;;;;4941362;29;20563;-91
2023/05/28 05:30:54;;;;;;;1.47;0.90;;;15.70;98.20;;;;;;4955009;29;20494;-93
2023/05/28 05:33:20;;;;;;;1.50;1.00;;;15.90;98.20;;;;;;4940227;29;20542;-90
2023/05/28 05:35:47;;;;;;;1.50;1.00;;;16.20;98.20;;;;;;4932508;29;20471;-90
2023/05/28 05:38:14;;;;;;;1.47;1.00;;;16.30;98.20;;;;;;4940386;29;20483;-90
2023/05/28 05:40:43;;;;;;;1.47;1.00;;;16.50;98.20;;;;;;4939989;29;20471;-90
2023/05/28 05:43:10;;;;;;;1.47;0.90;;;16.60;98.20;;;;;;4957977;29;20518;-94
2023/05/28 05:45:37;;;;;;;1.50;0.90;;;16.70;98.00;;;;;;4965582;29;20988;-91
2023/05/28 05:48:04;;;;;;;1.50;0.90;;;16.80;98.20;;;;;;4946823;29;20521;-92
2023/05/28 05:50:31;;;;;;;1.47;0.90;;;16.90;96.60;;;;;;4932033;29;20469;-93
2023/05/28 05:52:59;;;;;;;1.50;1.00;;;17.00;97.50;;;;;;4950738;29;20475;-93
2023/05/28 05:55:26;;;;;;;1.50;1.00;;;17.10;98.00;;;;;;4946518;29;20467;-91
2023/05/28 05:57:58;;;;;;;1.50;0.90;;;17.20;97.90;;;;;;4942063;29;20506;-89
2023/05/28 06:00:25;;;;;;;1.50;0.90;;;17.40;96.70;;;;;;4953266;29;20938;-89
2023/05/28 06:02:54;;;;;;;1.50;1.00;;;17.60;95.80;;;;;;4938162;29;20504;-91
2023/05/28 06:05:20;;;;;;;1.50;0.90;;;17.70;95.10;;;;;;4950565;29;20463;-93
2023/05/28 06:07:49;;;;;;;1.50;0.90;;;17.80;96.10;;;;;;4944725;29;21035;-93
2023/05/28 06:10:17;;;;;;;1.50;1.00;;;18.10;95.60;;;;;;4949345;29;20467;-91
2023/05/28 06:12:52;;;;;;;1.47;1.00;;;18.30;95.20;;;;;;4944194;29;20856;-91
2023/05/28 06:15:21;;;;;;;1.50;0.90;;;18.60;94.60;;;;;;4949557;29;20461;-89
2023/05/28 06:17:48;;;;;;;1.50;0.90;;;18.80;93.70;;;;;;4937747;28;21050;-91
2023/05/28 06:20:15;;;;;;;1.47;0.90;;;19.00;92.80;;;;;;4947964;29;20490;-90
2023/05/28 06:22:42;;;;;;;1.50;0.90;;;19.20;91.30;;;;;;4946893;29;20467;-94
2023/05/28 06:25:12;;;;;;;1.50;1.00;;;19.40;91.00;;;;;;4939877;29;20474;-94
2023/05/28 06:27:42;;;;;;;2.53;2.33;;;19.50;91.10;;;;;;4941777;29;20490;-91
2023/05/28 06:30:10;;;;;;;1.50;0.90;;;19.60;91.20;;;;;;4940602;29;20491;-92
2023/05/28 06:32:42;;;;;;;1.50;0.90;;;19.90;90.10;;;;;;4945377;29;20675;-91
2023/05/28 06:35:17;;;;;;;6.60;1.87;;;20.00;89.30;;;;;;4963883;29;20486;-91
2023/05/28 06:37:53;;;;;;;1.43;0.90;;;20.20;88.60;;;;;;4964109;29;20459;-92
2023/05/28 06:40:33;;;;;;;1.50;0.90;;;20.40;88.30;;;;;;4953953;28;20466;-93
2023/05/28 06:43:54;;;;;;;;;;;;;;;;;;;;;
2023/05/28 06:47:04;;;;;;;1.50;0.90;;;20.90;84.70;;;;;;4938380;29;20808;-91
2023/05/28 06:59:35;;;;;;;1.47;0.90;;;21.50;81.70;;;;;;4955065;23;20513;-74
2023/05/28 07:02:02;;;;;;;1.47;0.90;;;21.80;82.10;;;;;;4947467;28;20460;-74
2023/05/28 07:04:29;;;;;;;1.47;0.90;;;22.00;80.60;;;;;;4941627;28;20467;-74
2023/05/28 07:06:56;;;;;;;1.43;0.90;;;22.20;79.70;;;;;;4945277;28;20586;-74
2023/05/28 07:09:22;;;;;;;1.47;0.90;;;22.20;77.50;;;;;;4947717;28;20498;-75
2023/05/28 07:11:49;;;;;;;1.50;1.00;;;22.40;76.80;;;;;;4943586;28;20467;-75
2023/05/28 07:14:16;;;;;;;1.47;0.90;;;22.60;78.70;;;;;;4945800;28;20547;-76
2023/05/28 07:16:44;;;;;;;1.50;0.90;;;22.80;77.40;;;;;;4944954;28;20861;-74
2023/05/28 07:19:11;;;;;;;1.43;0.90;;;22.90;77.40;;;;;;4945561;28;20456;-75
2023/05/28 07:21:38;;;;;;;1.47;0.90;;;23.00;76.90;;;;;;4941632;28;20473;-75
2023/05/28 07:24:06;;;;;;;1.80;1.47;;;23.20;76.10;;;;;;4946131;28;20476;-75
2023/05/28 07:26:32;;;;;;;1.43;0.90;;;23.40;75.30;;;;;;4946501;28;20566;-75
2023/05/28 07:29:00;;;;;;;1.47;0.80;;;23.60;75.90;;;;;;4947782;28;20471;-75
2023/05/28 07:31:28;;;;;;;1.50;0.90;;;23.70;74.40;;;;;;4945312;28;20481;-75
2023/05/28 07:33:56;;;;;;;1.43;0.80;;;23.80;75.90;;;;;;4944048;28;20467;-75
2023/05/28 07:36:23;;;;;;;1.47;0.90;;;23.80;74.50;;;;;;4942763;28;20540;-75
2023/05/28 07:38:50;;;;;;;1.47;0.80;;;23.90;73.70;;;;;;4946655;28;20498;-75
2023/05/28 07:41:17;;;;;;;1.43;0.90;;;23.80;72.70;;;;;;4944344;28;20600;-75
2023/05/28 07:43:44;;;;;;;1.47;0.90;;;23.80;73.70;;;;;;4944835;28;20474;-76
2023/05/28 07:46:11;;;;;;;1.50;0.80;;;23.90;73.40;;;;;;4939975;28;20492;-77
2023/05/28 07:48:38;;;;;;;1.50;1.00;;;24.00;73.20;;;;;;4941770;28;20488;-75
2023/05/28 07:51:09;;;;;;;1.40;0.90;;;24.20;73.20;;;;;;4945229;28;20526;-75
2023/05/28 07:53:36;;;;;;;1.47;0.87;;;24.50;71.70;;;;;;4942119;28;20912;-77
2023/05/28 07:56:03;;;;;;;1.50;0.90;;;24.80;74.70;;;;;;4943106;28;20463;-77
2023/05/28 08:00:20;;;;;;;1.47;0.80;;;25.20;73.60;;;;;;5063248;27;20946;-74
2023/05/28 08:02:47;;;;;;;1.47;0.80;;;25.40;72.60;;;;;;5050168;28;20483;-75
2023/05/28 08:05:14;;;;;;;1.40;0.80;;;25.50;72.40;;;;;;5048132;28;20462;-75
2023/05/28 08:07:41;;;;;;;1.47;0.90;;;25.70;72.50;;;;;;5040238;28;20490;-77
2023/05/28 08:10:08;;;;;;;1.43;0.80;;;25.80;70.90;;;;;;5035947;28;20895;-78
2023/05/28 08:12:35;;;;;;;1.47;0.80;;;25.90;71.20;;;;;;5036461;28;21035;-77
2023/05/28 08:15:02;;;;;;;1.43;0.80;;;26.00;71.60;;;;;;5034104;28;20469;-76
2023/05/28 08:17:32;;;;;;;1.47;0.80;;;26.10;71.10;;;;;;5035968;28;20510;-79
2023/05/28 08:19:59;;;;;;;1.43;0.80;;;26.30;70.80;;;;;;5035106;28;21467;-76
2023/05/28 08:22:26;;;;;;;1.50;0.80;;;26.40;70.80;;;;;;5037594;28;20466;-78
2023/05/28 08:24:53;;;;;;;1.50;0.90;;;26.50;70.00;;;;;;5034681;28;20823;-76
2023/05/28 08:27:20;;;;;;;1.50;1.00;;;26.50;71.10;;;;;;5037651;28;20897;-76
2023/05/28 08:29:47;;;;;;;1.47;0.80;;;26.50;71.60;;;;;;5035981;28;20481;-79
2023/05/28 08:32:14;;;;;;;1.43;0.80;;;26.70;69.80;;;;;;5037473;28;20553;-76
2023/05/28 08:34:42;;;;;;;1.47;0.80;;;26.70;70.60;;;;;;5035412;28;20478;-78
2023/05/28 08:37:09;;;;;;;1.47;0.80;;;26.80;71.10;;;;;;5036573;28;20481;-77
2023/05/28 08:39:36;;;;;;;1.43;0.80;;;27.00;68.90;;;;;;5034994;28;20485;-77
2023/05/28 08:42:04;;;;;;;1.50;0.90;;;27.20;69.20;;;;;;5036931;28;20462;-78
2023/05/28 08:44:31;;;;;;;1.50;0.90;;;27.30;68.40;;;;;;5036571;28;20985;-77
2023/05/28 08:46:58;;;;;;;1.50;0.80;;;27.40;66.70;;;;;;5035515;28;20482;-76
2023/05/28 08:49:31;;;;;;;1.50;0.80;;;27.40;66.80;;;;;;5035254;28;20470;-78
2023/05/28 08:52:02;;;;;;;1.50;0.90;;;27.40;65.00;;;;;;5034514;28;20454;-77
2023/05/28 08:54:30;;;;;;;1.50;0.80;;;27.50;65.90;;;;;;5035620;28;20484;-77
2023/05/28 08:56:57;;;;;;;1.47;0.80;;;27.60;65.90;;;;;;5035731;28;20862;-77
2023/05/28 08:59:27;;;;;;;1.43;0.80;;;27.60;66.20;;;;;;5033415;28;20494;-76
2023/05/28 09:01:55;;;;;;;1.47;0.87;;;27.60;65.60;;;;;;5036018;28;20493;-76
2023/05/28 09:04:22;;;;;;;1.43;0.80;;;27.70;65.60;;;;;;5033258;28;20461;-80
2023/05/28 09:06:51;;;;;;;1.47;0.80;;;27.80;65.80;;;;;;5034849;28;20849;-78
2023/05/28 09:09:20;;;;;;;1.40;0.80;;;27.90;65.40;;;;;;5037610;28;21078;-77
2023/05/28 09:11:49;;;;;;;1.50;0.80;;;27.90;64.10;;;;;;5023306;28;20467;-79
2023/05/28 09:14:19;;;;;;;1.50;0.80;;;27.90;65.30;;;;;;5024802;28;20462;-77
2023/05/28 09:16:47;;;;;;;1.40;0.80;;;27.90;64.60;;;;;;5023316;28;20482;-78
2023/05/28 09:19:17;;;;;;;1.43;0.80;;;27.90;65.80;;;;;;5023856;28;20540;-77
2023/05/28 09:21:55;;;;;;;1.47;0.80;;;28.00;65.90;;;;;;5022380;28;20467;-78
2023/05/28 09:24:25;;;;;;;1.47;0.90;;;27.90;64.70;;;;;;5023259;28;20809;-79
2023/05/28 09:26:57;;;;;;;1.40;0.80;;;27.90;63.30;;;;;;5022397;28;20490;-78
2023/05/28 09:29:24;;;;;;;1.40;0.80;;;28.00;64.10;;;;;;5019770;28;20459;-77
2023/05/28 09:31:57;;;;;;;1.40;0.80;;;27.90;63.40;;;;;;5024108;28;20524;-78
2023/05/28 09:34:28;;;;;;;1.47;0.80;;;28.00;63.80;;;;;;5023808;28;20487;-78
2023/05/28 09:37:00;;;;;;;1.43;0.80;;;28.10;64.80;;;;;;5027711;28;20482;-79
2023/05/28 09:39:28;;;;;;;1.47;0.80;;;28.20;64.60;;;;;;5021541;28;20482;-80
2023/05/28 09:42:06;;;;;;;1.47;0.80;;;28.40;62.60;;;;;;5022693;28;20557;-81
2023/05/28 09:44:34;;;;;;;1.50;0.90;;;28.40;61.50;;;;;;5022285;28;20557;-79
2023/05/28 09:47:01;;;;;;;1.47;0.80;;;28.50;63.10;;;;;;5023068;28;20769;-78
2023/05/28 09:49:30;;;;;;;1.50;0.80;;;28.40;63.60;;;;;;5020551;28;21022;-80
2023/05/28 09:52:01;;;;;;;1.47;0.80;;;28.40;64.80;;;;;;5022348;28;20972;-77
2023/05/28 09:54:35;;;;;;;1.47;0.80;;;28.30;63.60;;;;;;5021144;28;20459;-77
2023/05/28 09:57:03;;;;;;;1.47;0.80;;;28.40;64.20;;;;;;5022884;28;20861;-78
2023/05/28 09:59:36;;;;;;;3.33;2.63;;;28.60;64.00;;;;;;5021261;28;20556;-81
2023/05/28 10:02:17;;;;;;;1.47;0.80;;;28.70;62.20;;;;;;5022608;28;20498;-78
2023/05/28 10:04:47;;;;;;;1.50;0.80;;;28.80;63.80;;;;;;5021316;28;20470;-78
2023/05/28 10:07:16;;;;;;;1.43;0.80;;;29.00;62.70;;;;;;5022135;28;20566;-81
2023/05/28 10:09:45;;;;;;;1.40;0.80;;;29.10;62.50;;;;;;5022404;28;20837;-78
2023/05/28 10:12:18;;;;;;;1.47;0.80;;;29.00;63.00;;;;;;5023174;28;20807;-78
2023/05/28 10:14:48;;;;;;;1.47;0.80;;;29.10;62.90;;;;;;5021702;28;20477;-78
2023/05/28 10:17:18;;;;;;;1.43;0.80;;;29.20;62.20;;;;;;5020599;28;20636;-81
2023/05/28 10:19:46;;;;;;;1.43;0.80;;;29.20;60.30;;;;;;5021835;28;20557;-78
2023/05/28 10:22:14;;;;;;;1.47;0.80;;;29.20;62.80;;;;;;5022167;28;20463;-80
2023/05/28 10:24:42;;;;;;;1.40;0.80;;;29.30;61.50;;;;;;5021155;28;20497;-82
2023/05/28 10:27:14;;;;;;;1.47;0.80;;;29.40;61.20;;;;;;5021660;28;20493;-82
2023/05/28 10:31:34;;;;;;;1.43;0.80;;;29.40;61.40;;;;;;5074831;27;20570;-76
2023/05/28 10:34:02;;;;;;;1.43;0.80;;;29.30;62.30;;;;;;5075988;28;20526;-77
2023/05/28 10:36:29;;;;;;;1.40;0.80;;;29.30;63.00;;;;;;5076588;28;20490;-78
2023/05/28 10:39:01;;;;;;;1.47;0.80;;;29.40;61.70;;;;;;5076826;28;20912;-77
2023/05/28 10:41:35;;;;;;;1.50;0.80;;;29.60;61.70;;;;;;5073329;28;20518;-75
2023/05/28 10:44:07;;;;;;;1.50;0.90;;;29.70;63.00;;;;;;5072665;28;20477;-75
2023/05/28 10:46:40;;;;;;;1.47;0.80;;;29.70;61.90;;;;;;5070616;28;20476;-76
2023/05/28 10:49:16;;;;;;;1.40;0.80;;;29.80;60.40;;;;;;5073825;28;20456;-77
2023/05/28 10:51:57;;;;;;;1.47;0.80;;;29.90;61.20;;;;;;5071910;28;20464;-77
2023/05/28 10:54:41;;;;;;;1.43;0.80;;;30.10;59.60;;;;;;5069650;28;20559;-75
2023/05/28 10:57:13;;;;;;;1.47;0.80;;;30.30;60.80;;;;;;5073318;28;20575;-75
2023/05/28 10:59:46;;;;;;;1.47;0.90;;;30.20;59.50;;;;;;5070513;28;20912;-75
2023/05/28 11:02:19;;;;;;;1.40;0.80;;;30.20;59.80;;;;;;5071543;28;20202;-76
2023/05/28 11:04:48;;;;;;;3.77;1.30;;;30.30;59.80;;;;;;5071246;28;20234;-76
2023/05/28 11:07:17;;;;;;;1.43;0.80;;;30.20;59.00;;;;;;5073241;28;20476;-76
2023/05/28 11:09:50;;;;;;;1.40;0.80;;;30.20;59.30;;;;;;5069015;28;20222;-75
2023/05/28 11:12:18;;;;;;;1.43;0.80;;;30.20;60.10;;;;;;5075558;28;20630;-75
2023/05/28 11:14:45;;;;;;;1.50;0.80;;;30.30;61.70;;;;;;5070152;28;20302;-75
2023/05/28 11:17:14;;;;;;;1.47;0.80;;;30.40;60.80;;;;;;5073866;28;20221;-76
2023/05/28 11:19:43;;;;;;;1.43;0.80;;;30.50;59.50;;;;;;5073833;28;21099;-75
2023/05/28 11:22:10;;;;;;;1.43;0.80;;;30.30;56.70;;;;;;5075489;28;20511;-76
2023/05/28 11:24:59;;;;;;;1.50;0.80;;;30.20;57.30;;;;;;5071797;28;20213;-75
2023/05/28 11:27:28;;;;;;;1.43;0.80;;;30.00;56.60;;;;;;5071504;28;20226;-75
2023/05/28 11:29:57;;;;;;;1.43;0.80;;;29.90;56.00;;;;;;5072381;28;20488;-75
2023/05/28 11:32:26;;;;;;;1.40;0.80;;;29.90;56.60;;;;;;5072895;28;20206;-76
2023/05/28 11:34:54;;;;;;;1.43;0.80;;;29.90;56.60;;;;;;5072268;28;20482;-75
2023/05/28 11:37:26;;;;;;;1.70;1.20;;;30.00;57.70;;;;;;5073713;28;20230;-75
2023/05/28 11:39:55;;;;;;;1.57;1.13;;;30.10;57.90;;;;;;5063316;28;20467;-75
2023/05/28 11:42:23;;;;;;;1.40;0.80;;;30.20;58.90;;;;;;5055540;28;20608;-76
2023/05/28 11:44:51;;;;;;;1.70;1.23;;;30.30;60.30;;;;;;5055757;28;20207;-76
2023/05/28 11:47:19;;;;;;;3.00;2.60;;;30.40;61.10;;;;;;5057930;28;20514;-75
2023/05/28 11:49:49;;;;;;;1.40;0.80;;;30.40;58.90;;;;;;5056128;28;20369;-76
2023/05/28 11:52:17;;;;;;;1.43;0.80;;;30.40;58.30;;;;;;5058319;28;20226;-77
2023/05/28 11:54:47;;;;;;;1.50;1.00;;;30.20;56.20;;;;;;5058376;28;20594;-75
2023/05/28 11:57:23;;;;;;;1.43;0.90;;;30.10;58.70;;;;;;5059581;28;20468;-75
2023/05/28 11:59:57;;;;;;;1.47;0.80;;;30.10;58.30;;;;;;5052051;28;20554;-75
2023/05/28 12:02:24;;;;;;;1.40;0.80;;;30.00;58.10;;;;;;5057816;28;20480;-75
2023/05/28 12:04:57;;;;;;;1.47;0.80;;;30.00;57.30;;;;;;5058069;28;20222;-75
2023/05/28 12:07:28;;;;;;;1.40;0.80;;;30.20;58.90;;;;;;5058176;28;20721;-77
2023/05/28 12:10:06;;;;;;;1.47;0.80;;;30.20;57.40;;;;;;5055700;28;20433;-75
2023/05/28 12:12:34;;;;;;;1.40;0.80;;;30.20;58.60;;;;;;5057986;28;20297;-75
2023/05/28 12:15:03;;;;;;;1.40;0.80;;;30.30;58.70;;;;;;5059657;28;20363;-76
2023/05/28 12:17:37;;;;;;;1.40;0.80;;;30.40;56.40;;;;;;5052089;28;20488;-75
2023/05/28 12:20:07;;;;;;;1.50;0.80;;;30.30;56.10;;;;;;5058261;28;20198;-75
2023/05/28 12:22:35;;;;;;;1.40;0.80;;;30.50;56.90;;;;;;5054454;28;20217;-77
2023/05/28 12:25:02;;;;;;;1.40;0.80;;;30.60;56.90;;;;;;5057484;28;20469;-76
2023/05/28 12:27:29;;;;;;;1.87;0.90;;;30.60;55.70;;;;;;5054116;28;21122;-75
2023/05/28 12:29:56;;;;;;;1.40;0.80;;;30.50;57.00;;;;;;5057727;28;20759;-76
2023/05/28 12:32:23;;;;;;;1.40;0.80;;;30.50;56.60;;;;;;5060554;28;20210;-75
2023/05/28 12:34:51;;;;;;;1.40;0.80;;;30.60;57.40;;;;;;5059702;28;20203;-75
2023/05/28 12:37:19;;;;;;;1.40;0.80;;;30.80;56.80;;;;;;5060136;28;20218;-76
2023/05/28 12:39:46;;;;;;;1.40;0.80;;;30.70;56.50;;;;;;5056261;28;20462;-75
2023/05/28 12:42:13;;;;;;;1.40;0.80;;;30.60;56.80;;;;;;5061213;28;20468;-76
2023/05/28 12:44:40;;;;;;;1.50;1.00;;;30.40;55.00;;;;;;5056013;28;20292;-74
2023/05/28 12:47:07;;;;;;;1.40;0.80;;;30.40;57.00;;;;;;5056563;28;20229;-75
2023/05/28 12:49:34;;;;;;;1.40;0.80;;;30.30;56.00;;;;;;5059120;28;20194;-76
2023/05/28 12:52:01;;;;;;;1.47;0.90;;;30.40;58.30;;;;;;5059119;28;20909;-76
2023/05/28 12:54:29;;;;;;;1.40;0.80;;;30.70;56.40;;;;;;5053826;28;20539;-77
2023/05/28 12:56:56;;;;;;;2.80;1.10;;;30.70;55.10;;;;;;5055465;28;20225;-76
2023/05/28 12:59:23;;;;;;;1.47;0.80;;;30.60;53.80;;;;;;5059689;28;20585;-76
2023/05/28 13:01:50;;;;;;;1.40;0.80;;;30.50;53.90;;;;;;5059135;28;20353;-76
2023/05/28 13:04:17;;;;;;;1.40;0.80;;;30.60;56.50;;;;;;5059418;28;20203;-75
2023/05/28 13:06:44;;;;;;;1.40;0.80;;;30.50;55.20;;;;;;5058122;28;20485;-75
2023/05/28 13:09:12;;;;;;;1.40;0.90;;;30.50;55.30;;;;;;5057542;28;20457;-76
2023/05/28 13:11:42;;;;;;;1.40;0.80;;;30.60;56.00;;;;;;5059578;28;20550;-75
2023/05/28 13:14:09;;;;;;;1.47;0.90;;;30.70;55.30;;;;;;5061862;28;20301;-75
2023/05/28 13:16:36;;;;;;;1.40;0.80;;;30.80;54.90;;;;;;5056928;28;20262;-77
2023/05/28 13:19:03;;;;;;;1.40;0.80;;;30.80;55.10;;;;;;5060620;28;20614;-76
2023/05/28 13:21:31;;;;;;;1.40;0.80;;;30.90;56.60;;;;;;5057034;28;20290;-77
2023/05/28 13:23:59;;;;;;;1.40;0.80;;;30.70;56.00;;;;;;5061092;28;20203;-76
2023/05/28 13:26:26;;;;;;;1.40;0.80;;;30.60;56.30;;;;;;5059930;28;20485;-76
2023/05/28 13:28:54;;;;;;;1.40;0.87;;;30.50;58.10;;;;;;5059604;28;20463;-76
2023/05/28 13:31:21;;;;;;;1.40;0.80;;;30.50;58.90;;;;;;5061796;28;20227;-76
2023/05/28 13:33:48;;;;;;;1.40;0.80;;;30.60;55.80;;;;;;5060576;28;20195;-76
2023/05/28 13:36:15;;;;;;;1.50;0.90;;;30.50;55.60;;;;;;5060957;28;20215;-76
2023/05/28 13:38:43;;;;;;;1.40;0.80;;;30.30;55.60;;;;;;5055241;28;20395;-77
2023/05/28 13:41:10;;;;;;;1.40;0.80;;;30.10;57.30;;;;;;5061540;28;20194;-76
2023/05/28 13:43:37;;;;;;;1.40;0.80;;;30.20;56.10;;;;;;5058649;28;20468;-76
2023/05/28 13:46:06;;;;;;;1.43;0.80;;;30.00;57.70;;;;;;5055753;28;20208;-76
2023/05/28 13:48:33;;;;;;;1.43;0.83;;;30.00;58.80;;;;;;5056413;28;20463;-76
2023/05/28 13:51:00;;;;;;;1.40;0.90;;;29.90;59.30;;;;;;5057657;28;21031;-76
2023/05/28 13:53:28;;;;;;;2.17;1.53;;;29.70;59.50;;;;;;5056313;28;20496;-77
2023/05/28 13:55:55;;;;;;;1.50;0.80;;;29.50;60.10;;;;;;5057360;28;20466;-77
2023/05/28 13:58:22;;;;;;;1.47;0.80;;;29.50;60.00;;;;;;5056743;28;20465;-77
2023/05/28 14:00:48;;;;;;;1.40;0.90;;;29.50;61.20;;;;;;5060830;28;20803;-77
2023/05/28 14:03:17;;;;;;;1.43;0.90;;;29.70;61.50;;;;;;5061772;28;20472;-76
2023/05/28 14:05:45;;;;;;;1.43;0.90;;;29.90;59.10;;;;;;5059419;28;20557;-77
2023/05/28 14:08:13;;;;;;;1.43;0.80;;;30.00;60.00;;;;;;5061435;28;20489;-77
2023/05/28 14:10:40;;;;;;;1.47;0.90;;;30.00;58.50;;;;;;5058480;28;21111;-77
2023/05/28 14:13:07;;;;;;;1.47;0.80;;;30.00;59.60;;;;;;5057381;28;20871;-76
2023/05/28 14:15:34;;;;;;;1.70;1.43;;;29.90;58.00;;;;;;5056017;28;20461;-75
2023/05/28 14:18:01;;;;;;;1.40;0.80;;;29.70;58.60;;;;;;5056681;28;20484;-76
2023/05/28 14:20:34;;;;;;;1.43;0.80;;;29.70;60.30;;;;;;5059491;28;20467;-77
2023/05/28 14:23:01;;;;;;;1.47;0.80;;;29.70;60.80;;;;;;5056683;28;20848;-77
2023/05/28 14:25:27;;;;;;;1.47;0.80;;;29.70;58.40;;;;;;5058945;28;20480;-76
2023/05/28 14:27:54;;;;;;;1.40;0.80;;;29.60;60.10;;;;;;5056664;28;20926;-76
2023/05/28 14:30:21;;;;;;;1.60;1.17;;;29.70;59.10;;;;;;5058489;28;20853;-76
2023/05/28 14:32:48;;;;;;;1.40;0.80;;;29.50;59.30;;;;;;5055778;28;20464;-76
2023/05/28 14:35:14;;;;;;;1.47;0.80;;;29.20;59.60;;;;;;5057527;28;20461;-76
2023/05/28 14:37:45;;;;;;;1.40;0.90;;;29.10;60.50;;;;;;5057574;28;20473;-77
2023/05/28 14:40:12;;;;;;;1.40;0.80;;;29.20;59.50;;;;;;5058796;28;20465;-76
2023/05/28 14:42:39;;;;;;;1.43;0.90;;;29.10;59.70;;;;;;5054384;28;21023;-77
2023/05/28 14:45:06;;;;;;;1.47;0.90;;;29.00;58.90;;;;;;5059289;28;20461;-77
2023/05/28 14:47:33;;;;;;;1.47;0.90;;;29.00;58.80;;;;;;5057541;28;20615;-75
2023/05/28 14:50:01;;;;;;;1.43;0.80;;;28.90;58.40;;;;;;5060948;28;20475;-77
2023/05/28 14:52:30;;;;;;;1.40;0.80;;;28.80;58.20;;;;;;5059296;28;20490;-77
2023/05/28 14:54:59;;;;;;;1.50;0.80;;;28.70;58.70;;;;;;5056430;28;20834;-75
2023/05/28 14:57:27;;;;;;;1.50;1.00;;;28.70;58.70;;;;;;5055380;28;20485;-76
2023/05/28 14:59:59;;;;;;;1.47;0.80;;;28.80;60.70;;;;;;5056688;28;20449;-77
2023/05/28 15:02:26;;;;;;;1.40;0.80;;;28.90;59.80;;;;;;5056908;28;20452;-76
2023/05/28 15:04:53;;;;;;;1.50;0.80;;;28.70;60.50;;;;;;5055224;28;20568;-76
2023/05/28 15:07:20;;;;;;;1.47;0.80;;;28.60;61.00;;;;;;5062199;28;20509;-76
2023/05/28 15:09:47;;;;;;;1.43;0.80;;;28.50;61.40;;;;;;5058376;28;20457;-77
2023/05/28 15:12:15;;;;;;;1.47;0.80;;;28.20;60.70;;;;;;5058358;28;20487;-75
2023/05/28 15:14:42;;;;;;;1.47;0.90;;;27.90;61.80;;;;;;5056976;28;20947;-75
2023/05/28 15:17:08;;;;;;;1.40;0.80;;;27.80;62.40;;;;;;5062054;28;21022;-76
2023/05/28 15:19:35;;;;;;;1.47;0.90;;;27.80;62.10;;;;;;5059337;28;20457;-75
2023/05/28 15:22:02;;;;;;;1.50;0.80;;;27.60;62.70;;;;;;5063379;28;20464;-75
2023/05/28 15:24:31;;;;;;;1.47;0.90;;;27.50;62.20;;;;;;5061796;28;20500;-76
2023/05/28 15:26:58;;;;;;;1.80;1.00;;;27.40;62.90;;;;;;5059346;28;20491;-75
2023/05/28 15:29:26;;;;;;;1.47;0.80;;;27.30;61.60;;;;;;5060943;28;20479;-76
2023/05/28 15:31:53;;;;;;;1.43;0.80;;;27.30;61.40;;;;;;5060770;28;21156;-75
2023/05/28 15:34:20;;;;;;;1.47;0.80;;;27.20;61.30;;;;;;5063997;28;20993;-75
2023/05/28 15:36:47;;;;;;;1.50;0.80;;;27.30;61.20;;;;;;5060841;28;20978;-75
2023/05/28 15:39:15;;;;;;;1.40;0.80;;;27.30;60.80;;;;;;5063671;28;20946;-78
2023/05/28 15:41:42;;;;;;;1.43;0.80;;;27.30;61.40;;;;;;5061465;28;20479;-77
2023/05/28 15:44:10;;;;;;;1.43;0.80;;;27.40;61.20;;;;;;5064341;28;20461;-79